TimeCET,TemperatureF,Dew PointF,Humidity,Sea Level PressureIn,VisibilityMPH,Wind Direction,Wind SpeedMPH,Gust SpeedMPH,PrecipitationIn,Events,Conditions,WindDirDegrees,DateUTC
12:20 AM,62.6,53.6,72,30.09,6.2,SW,3.5,-,N/A,,Scattered Clouds,220,2012-11-06 23:20:00
1:20 AM,59.0,55.4,88,30.12,5.0,WSW,4.6,-,N/A,Rain,Rain,250,2012-11-07 00:20:00
1:50 AM,57.2,50.0,77,30.09,5.0,WSW,6.9,-,N/A,Rain,Rain,240,2012-11-07 00:50:00
2:20 AM,57.2,51.8,82,30.12,5.0,South,3.5,-,N/A,Rain,Rain,170,2012-11-07 01:20:00
2:50 AM,57.2,53.6,88,30.12,5.0,South,2.3,-,N/A,Rain,Rain,170,2012-11-07 01:50:00
3:20 AM,57.2,53.6,88,30.12,5.0,South,3.5,-,N/A,,Scattered Clouds,170,2012-11-07 02:20:00
3:50 AM,57.2,53.6,88,30.09,5.0,NE,4.6,-,N/A,,Scattered Clouds,50,2012-11-07 02:50:00
4:20 AM,57.2,53.6,88,30.12,5.0,NNE,4.6,-,N/A,Rain,Rain,20,2012-11-07 03:20:00
4:50 AM,57.2,53.6,88,30.12,5.0,Variable,2.3,-,N/A,,Mostly Cloudy,0,2012-11-07 03:50:00
5:20 AM,57.2,53.6,88,30.12,5.0,Variable,1.2,-,N/A,,Mostly Cloudy,0,2012-11-07 04:20:00
5:50 AM,57.2,53.6,88,30.12,5.0,NNE,3.5,-,N/A,,Mostly Cloudy,20,2012-11-07 04:50:00
6:20 AM,57.2,53.6,88,30.12,6.2,ENE,2.3,-,N/A,,Mostly Cloudy,70,2012-11-07 05:20:00
6:50 AM,57.2,53.6,88,30.12,6.2,ENE,4.6,-,N/A,,Mostly Cloudy,60,2012-11-07 05:50:00
7:20 AM,55.4,53.6,94,30.12,6.2,ENE,4.6,-,N/A,,Mostly Cloudy,60,2012-11-07 06:20:00
7:50 AM,57.2,53.6,88,30.15,6.2,Variable,1.2,-,N/A,,Scattered Clouds,0,2012-11-07 06:50:00
8:20 AM,55.4,53.6,94,30.15,6.2,West,2.3,-,N/A,,Partly Cloudy,260,2012-11-07 07:20:00
8:50 AM,60.8,57.2,88,30.15,6.2,Variable,1.2,-,N/A,,Partly Cloudy,0,2012-11-07 07:50:00
9:20 AM,64.4,55.4,73,30.15,6.2,Variable,2.3,-,N/A,,Partly Cloudy,0,2012-11-07 08:20:00
9:50 AM,62.6,57.2,82,30.15,6.2,NNE,5.8,-,N/A,,Partly Cloudy,30,2012-11-07 08:50:00
10:20 AM,62.6,55.4,77,30.15,6.2,ENE,5.8,-,N/A,,Partly Cloudy,60,2012-11-07 09:20:00
10:50 AM,60.8,53.6,77,30.15,6.2,Variable,2.3,-,N/A,,Partly Cloudy,0,2012-11-07 09:50:00
11:20 AM,64.4,55.4,73,30.15,6.2,SE,5.8,-,N/A,,Partly Cloudy,140,2012-11-07 10:20:00
11:50 AM,64.4,51.8,64,30.15,6.2,Variable,2.3,-,N/A,,Scattered Clouds,0,2012-11-07 10:50:00
12:20 PM,64.4,50.0,59,30.15,6.2,Calm,Calm,-,N/A,,Scattered Clouds,0,2012-11-07 11:20:00
12:50 PM,66.2,50.0,56,30.15,6.2,West,2.3,-,N/A,,Mostly Cloudy,260,2012-11-07 11:50:00
1:20 PM,64.4,51.8,64,30.15,6.2,West,4.6,-,N/A,,Mostly Cloudy,280,2012-11-07 12:20:00
1:50 PM,59.0,48.2,67,30.15,6.2,North,24.2,35.7,N/A,,Mostly Cloudy,360,2012-11-07 12:50:00
2:20 PM,59.0,50.0,72,30.18,6.2,North,12.7,-,N/A,,Scattered Clouds,10,2012-11-07 13:20:00
2:50 PM,60.8,48.2,63,30.18,6.2,NNE,10.4,-,N/A,,Scattered Clouds,20,2012-11-07 13:50:00
3:20 PM,60.8,48.2,63,30.21,6.2,NE,6.9,-,N/A,,Scattered Clouds,50,2012-11-07 14:20:00
3:50 PM,62.6,46.4,55,30.18,6.2,NE,6.9,-,N/A,,Partly Cloudy,40,2012-11-07 14:50:00
4:20 PM,60.8,46.4,59,30.21,-9999.0,NNE,6.9,-,N/A,,Clear,30,2012-11-07 15:20:00
4:50 PM,59.0,46.4,63,30.21,-9999.0,ENE,3.5,-,N/A,,Clear,70,2012-11-07 15:50:00
5:20 PM,59.0,46.4,63,30.21,-9999.0,NNE,5.8,-,N/A,,Clear,20,2012-11-07 16:20:00
5:50 PM,59.0,44.6,59,30.21,-9999.0,NE,8.1,-,N/A,,Clear,40,2012-11-07 16:50:00
6:20 PM,57.2,44.6,63,30.24,-9999.0,NE,8.1,-,N/A,,Clear,40,2012-11-07 17:20:00
6:50 PM,57.2,42.8,59,30.24,-9999.0,NE,9.2,-,N/A,,Clear,40,2012-11-07 17:50:00
7:20 PM,57.2,41.0,55,30.27,-9999.0,NE,9.2,-,N/A,,Clear,50,2012-11-07 18:20:00
7:50 PM,55.4,41.0,58,30.27,-9999.0,NE,4.6,-,N/A,,Clear,40,2012-11-07 18:50:00
8:20 PM,55.4,41.0,58,30.27,-9999.0,ENE,4.6,-,N/A,,Clear,60,2012-11-07 19:20:00
8:50 PM,55.4,41.0,58,30.30,-9999.0,ENE,3.5,-,N/A,,Clear,60,2012-11-07 19:50:00
9:20 PM,55.4,41.0,58,30.30,-9999.0,Variable,6.9,-,N/A,,Clear,0,2012-11-07 20:20:00
9:50 PM,53.6,41.0,62,30.30,-9999.0,NNE,5.8,-,N/A,,Clear,30,2012-11-07 20:50:00
10:20 PM,51.8,41.0,67,30.30,-9999.0,NE,6.9,-,N/A,,Clear,40,2012-11-07 21:20:00
10:50 PM,51.8,39.2,62,30.30,-9999.0,NNE,5.8,-,N/A,,Clear,20,2012-11-07 21:50:00
11:20 PM,53.6,41.0,62,30.30,-9999.0,NNE,6.9,-,N/A,,Clear,30,2012-11-07 22:20:00
11:50 PM,53.6,41.0,62,30.30,-9999.0,North,6.9,-,N/A,,Clear,10,2012-11-07 22:50:00